Time;durP1;ratioP1;P1;durP2;ratioP2;P2;SDS_P1;SDS_P2;PMS_P1;PMS_P2;Temp;Humidity;BMP_temperature;BMP_pressure;BME280_temperature;BME280_humidity;BME280_pressure;Samples;Min_cycle;Max_cycle;Signal;HPM_P1;HPM_P2
2022/05/30 00:00:15;;;;;;;2.50;1.77;;;;;;;20.16;47.08;99736.94;4992808;28;20177;-74
2022/05/30 00:02:40;;;;;;;2.43;1.60;;;;;;;20.15;47.30;99730.38;4993465;28;20427;-73
2022/05/30 00:05:07;;;;;;;3.00;2.00;;;;;;;20.15;47.05;99733.22;4976912;28;20478;-71
2022/05/30 00:07:32;;;;;;;3.63;1.77;;;;;;;20.15;47.20;99727.50;4977100;28;20188;-74
2022/05/30 00:09:57;;;;;;;3.80;2.10;;;;;;;20.15;47.38;99730.38;4992144;28;20463;-71
2022/05/30 00:12:23;;;;;;;3.47;1.90;;;;;;;20.15;47.17;99721.78;4976803;28;20193;-74
2022/05/30 00:14:48;;;;;;;3.07;1.60;;;;;;;20.14;47.08;99723.00;4977103;28;20184;-73
2022/05/30 00:17:14;;;;;;;2.70;1.60;;;;;;;20.15;47.17;99718.06;4985132;28;20185;-73
2022/05/30 00:19:39;;;;;;;4.03;2.50;;;;;;;20.15;47.30;99715.22;5012339;28;20179;-71
2022/05/30 00:22:05;;;;;;;2.70;1.70;;;;;;;20.14;47.06;99720.13;4996299;28;20642;-72
2022/05/30 00:24:32;;;;;;;3.40;1.70;;;;;;;20.13;47.39;99721.38;4992853;28;20188;-74
2022/05/30 00:26:57;;;;;;;4.43;1.80;;;;;;;20.13;47.61;99715.63;4975636;28;20609;-74
2022/05/30 00:29:23;;;;;;;2.93;1.40;;;;;;;20.14;47.16;99716.44;5007940;28;20455;-75
2022/05/30 00:31:48;;;;;;;3.60;1.90;;;;;;;20.13;47.28;99718.50;4990907;28;20672;-74
2022/05/30 00:34:14;;;;;;;2.30;1.40;;;;;;;20.14;46.96;99710.72;5007613;28;20208;-74
2022/05/30 00:36:39;;;;;;;3.37;1.70;;;;;;;20.13;47.30;99714.81;4974757;28;20176;-71
2022/05/30 00:39:05;;;;;;;3.80;1.83;;;;;;;20.13;47.22;99703.34;4990268;28;20188;-73
2022/05/30 00:41:30;;;;;;;2.73;1.53;;;;;;;20.13;47.17;99703.34;4991052;28;20173;-73
2022/05/30 00:43:56;;;;;;;3.03;1.63;;;;;;;20.12;47.23;99708.25;4991312;28;20181;-74
2022/05/30 00:46:21;;;;;;;2.90;2.00;;;;;;;20.12;47.33;99711.09;4990899;28;20177;-73
2022/05/30 00:48:48;;;;;;;2.60;1.50;;;;;;;20.12;47.31;99702.50;4990824;28;20181;-73
2022/05/30 00:51:27;;;;;;;3.50;1.50;;;;;;;20.11;47.19;99706.59;5008074;28;20205;-71
2022/05/30 00:53:54;;;;;;;2.70;1.50;;;;;;;20.11;47.88;99700.88;4976378;28;20428;-74
2022/05/30 00:56:19;;;;;;;2.70;1.60;;;;;;;20.11;47.04;99703.75;4955840;28;20445;-71
2022/05/30 00:58:49;;;;;;;3.60;1.90;;;;;;;20.11;47.54;99695.13;4956809;28;20427;-71
2022/05/30 01:01:14;;;;;;;2.67;1.70;;;;;;;20.11;47.57;99688.59;4941247;28;20636;-74
2022/05/30 01:06:31;;;;;;;2.27;1.30;;;;;;;20.10;47.55;99689.81;4975118;28;20248;-72
2022/05/30 01:08:57;;;;;;;3.60;2.30;;;;;;;20.10;47.35;99686.94;4972886;28;20511;-73
2022/05/30 01:11:22;;;;;;;2.47;1.70;;;;;;;20.09;47.23;99683.28;4958638;28;20442;-72
2022/05/30 01:13:48;;;;;;;3.03;1.90;;;;;;;20.09;47.25;99682.44;4975678;28;20423;-73
2022/05/30 01:16:13;;;;;;;3.00;1.33;;;;;;;20.09;47.54;99686.16;4992496;28;20617;-73
2022/05/30 01:18:43;;;;;;;4.73;1.93;;;;;;;20.08;47.23;99684.50;4991950;28;20192;-73
2022/05/30 01:21:47;;;;;;;2.50;1.60;;;;;;;20.08;47.29;99683.69;4960001;28;20176;-71
2022/05/30 01:24:37;;;;;;;2.70;1.70;;;;;;;20.08;47.28;99683.69;4942474;28;20427;-71
2022/05/30 01:27:22;;;;;;;2.60;1.70;;;;;;;20.07;47.48;99687.75;4948508;28;20531;-71
2022/05/30 01:29:50;;;;;;;3.13;1.60;;;;;;;20.06;47.32;99689.78;4954935;28;20500;-71
2022/05/30 01:32:20;;;;;;;2.80;1.57;;;;;;;20.06;47.48;99681.19;4954962;28;20940;-74
2022/05/30 01:34:46;;;;;;;3.37;1.40;;;;;;;20.06;47.52;99681.19;4970373;28;20413;-75
2022/05/30 01:37:11;;;;;;;3.80;1.90;;;;;;;20.06;47.40;99683.25;4955092;28;20432;-73
2022/05/30 01:39:37;;;;;;;2.93;2.00;;;;;;;20.06;47.33;99686.91;4971099;28;20154;-71
2022/05/30 01:42:03;;;;;;;2.67;1.60;;;;;;;20.06;47.44;99688.97;4955658;28;20182;-74
2022/05/30 01:44:28;;;;;;;4.43;2.00;;;;;;;20.04;47.24;99680.78;4972388;28;20212;-74
2022/05/30 01:46:54;;;;;;;2.37;1.57;;;;;;;20.04;47.18;99683.66;4990252;28;20496;-74
2022/05/30 01:49:19;;;;;;;4.37;2.23;;;;;;;20.05;47.34;99688.13;5012305;28;20200;-74
2022/05/30 01:51:45;;;;;;;2.30;1.33;;;;;;;20.05;47.29;99681.56;4995800;28;20177;-73
2022/05/30 01:54:10;;;;;;;2.70;1.70;;;;;;;20.04;47.20;99679.94;4996018;28;20257;-74
2022/05/30 01:56:35;;;;;;;3.87;1.90;;;;;;;20.04;47.51;99682.81;4995751;28;20181;-73
2022/05/30 01:59:01;;;;;;;3.70;1.80;;;;;;;20.02;47.36;99677.47;4962711;28;20776;-73
2022/05/30 02:01:27;;;;;;;2.40;1.50;;;;;;;20.02;47.34;99682.41;5012468;28;20167;-74
2022/05/30 02:03:52;;;;;;;2.53;1.53;;;;;;;20.01;47.21;99672.97;4995333;28;20193;-74
2022/05/30 02:06:19;;;;;;;2.83;1.53;;;;;;;20.02;47.32;99673.81;4992934;28;20288;-71
2022/05/30 02:08:46;;;;;;;2.83;1.63;;;;;;;20.01;47.21;99675.84;4976853;28;20176;-73
2022/05/30 02:11:11;;;;;;;3.00;1.70;;;;;;;20.00;47.20;99671.34;4992080;28;20459;-72
2022/05/30 02:13:37;;;;;;;3.33;1.40;;;;;;;20.00;47.31;99677.06;4992243;28;20990;-72
2022/05/30 02:18:48;;;;;;;2.20;1.37;;;;;;;20.00;47.53;99674.22;4962900;28;20829;-73
2022/05/30 02:21:14;;;;;;;2.93;1.70;;;;;;;19.99;47.31;99666.84;4958057;28;20421;-73
2022/05/30 02:23:39;;;;;;;2.83;1.50;;;;;;;19.99;47.33;99669.72;4961940;28;20184;-71
2022/05/30 02:26:04;;;;;;;2.70;1.60;;;;;;;20.00;47.06;99665.63;5012783;28;20189;-73
2022/05/30 02:28:30;;;;;;;2.70;1.57;;;;;;;19.99;47.31;99663.16;4978846;28;20177;-72
2022/05/30 02:30:57;;;;;;;3.13;1.60;;;;;;;19.99;47.43;99669.72;4994519;28;20189;-74
2022/05/30 02:36:44;;;;;;;2.90;1.43;;;;;;;19.99;47.21;99668.88;4940390;29;20517;-72
2022/05/30 02:39:11;;;;;;;1.90;1.23;;;;;;;19.97;47.09;99672.16;4978323;28;20428;-73
2022/05/30 02:41:37;;;;;;;2.67;1.63;;;;;;;19.97;47.13;99660.69;4978654;28;20475;-74
2022/05/30 02:44:02;;;;;;;5.80;1.53;;;;;;;19.97;47.17;99666.41;4962861;28;20924;-71
2022/05/30 02:46:28;;;;;;;2.40;1.60;;;;;;;19.97;47.19;99666.41;4978705;28;20188;-74
2022/05/30 02:48:53;;;;;;;2.70;1.43;;;;;;;19.97;47.15;99663.56;5011825;28;20552;-74
2022/05/30 02:51:19;;;;;;;4.00;2.00;;;;;;;19.95;47.38;99666.00;4978560;28;20652;-71
2022/05/30 02:53:44;;;;;;;2.90;1.70;;;;;;;19.96;47.39;99676.25;4978446;28;20181;-74
2022/05/30 02:56:13;;;;;;;3.87;2.07;;;;;;;19.96;47.21;99670.50;4994764;28;20185;-74
2022/05/30 02:58:38;;;;;;;2.70;1.40;;;;;;;19.94;47.01;99667.25;4994158;28;20188;-71
2022/05/30 03:01:04;;;;;;;3.03;1.60;;;;;;;19.95;47.09;99668.88;4993792;28;20421;-74
2022/05/30 03:03:30;;;;;;;3.27;1.70;;;;;;;19.94;47.19;99672.97;4978227;28;20223;-73
2022/05/30 03:05:55;;;;;;;2.87;1.73;;;;;;;19.93;47.25;99665.63;5010433;28;20646;-73
2022/05/30 03:08:21;;;;;;;2.97;1.40;;;;;;;19.94;47.15;99672.97;4978026;28;20632;-73
2022/05/30 03:10:47;;;;;;;2.63;1.63;;;;;;;19.93;47.20;99677.06;4994020;28;20735;-74
2022/05/30 03:13:12;;;;;;;2.20;1.57;;;;;;;19.92;47.26;99675.41;4979056;28;20183;-74
2022/05/30 03:15:37;;;;;;;2.93;1.67;;;;;;;19.93;47.28;99676.25;4994390;28;20621;-74
2022/05/30 03:18:03;;;;;;;3.07;1.63;;;;;;;19.93;47.27;99681.97;4993067;28;20176;-73
2022/05/30 03:20:29;;;;;;;3.23;1.60;;;;;;;19.92;47.25;99686.88;4980850;28;20256;-73
2022/05/30 03:22:55;;;;;;;3.50;1.43;;;;;;;19.92;47.32;99692.59;5013857;28;20184;-74
2022/05/30 03:25:21;;;;;;;2.70;1.43;;;;;;;19.92;47.31;99692.59;5031203;28;20866;-75
2022/05/30 03:27:46;;;;;;;2.53;1.50;;;;;;;19.91;47.14;99688.09;4994905;28;20432;-71
2022/05/30 03:30:12;;;;;;;3.37;1.77;;;;;;;19.90;47.34;99692.19;4993365;28;20228;-73
2022/05/30 03:32:38;;;;;;;2.60;1.60;;;;;;;19.90;47.47;99697.94;5011839;28;20231;-74
2022/05/30 03:35:04;;;;;;;2.37;1.50;;;;;;;19.90;47.37;99689.34;4993619;28;20184;-71
2022/05/30 03:37:30;;;;;;;2.70;1.40;;;;;;;19.89;47.25;99684.84;4961507;28;20686;-72
2022/05/30 03:39:55;;;;;;;2.67;1.40;;;;;;;19.90;47.56;99686.47;4976283;28;20435;-73
2022/05/30 03:42:20;;;;;;;2.87;1.60;;;;;;;19.89;47.39;99687.69;4976271;28;20546;-73
2022/05/30 03:44:46;;;;;;;2.37;1.37;;;;;;;19.87;47.33;99684.41;4991941;28;20722;-71
2022/05/30 03:47:11;;;;;;;3.07;1.53;;;;;;;19.87;47.46;99690.13;4991986;28;20176;-71
2022/05/30 03:49:37;;;;;;;3.93;1.90;;;;;;;19.88;47.14;99693.81;4975532;28;20550;-73
2022/05/30 03:52:03;;;;;;;2.80;1.90;;;;;;;19.86;47.33;99691.38;4975784;28;20608;-71
2022/05/30 03:54:28;;;;;;;2.83;1.90;;;;;;;19.86;47.42;99688.50;4959824;28;20818;-73
2022/05/30 03:56:54;;;;;;;2.00;1.53;;;;;;;19.87;47.43;99695.06;5010307;28;20602;-73
2022/05/30 03:59:19;;;;;;;2.90;1.87;;;;;;;19.85;47.46;99689.72;4976419;28;20180;-74
2022/05/30 04:01:45;;;;;;;3.30;1.80;;;;;;;19.85;47.29;99704.06;5010710;28;20177;-74
2022/05/30 04:04:12;;;;;;;2.33;1.37;;;;;;;19.85;47.23;99706.09;5011120;28;20533;-73
2022/05/30 04:06:38;;;;;;;5.17;2.10;;;;;;;19.85;47.20;99695.47;5009253;28;20691;-72
2022/05/30 04:09:03;;;;;;;2.90;1.37;;;;;;;19.84;47.04;99696.69;4975672;28;20474;-74
2022/05/30 04:11:30;;;;;;;2.90;1.60;;;;;;;19.83;47.29;99700.78;4976846;28;20177;-73
2022/05/30 04:13:55;;;;;;;2.77;1.50;;;;;;;19.85;47.27;99703.22;4993317;28;20181;-74
2022/05/30 04:16:21;;;;;;;3.00;1.50;;;;;;;19.84;47.33;99698.72;4994200;28;20915;-73
2022/05/30 04:18:46;;;;;;;2.53;1.67;;;;;;;19.84;47.24;99701.59;4996180;28;20202;-72
2022/05/30 04:21:12;;;;;;;2.70;1.47;;;;;;;19.84;47.25;99707.31;5011693;28;20176;-71
2022/05/30 04:23:38;;;;;;;2.33;1.30;;;;;;;19.83;47.11;99695.06;5010971;28;20184;-72
2022/05/30 04:26:06;;;;;;;3.33;2.00;;;;;;;19.83;47.20;99697.91;4973382;28;20184;-71
2022/05/30 04:28:32;;;;;;;3.93;1.43;;;;;;;19.83;47.19;99697.91;4970703;28;20431;-73
2022/05/30 04:30:57;;;;;;;3.50;1.40;;;;;;;19.86;46.93;99699.94;4971676;28;20785;-71
2022/05/30 04:33:23;;;;;;;2.90;1.70;;;;;;;19.88;47.03;99708.97;4940087;28;20189;-72
2022/05/30 04:35:48;;;;;;;2.90;1.50;;;;;;;19.89;47.07;99702.03;4971389;28;20193;-73
2022/05/30 04:38:14;;;;;;;3.33;1.73;;;;;;;19.90;46.90;99709.38;4957103;28;20182;-74
2022/05/30 04:40:39;;;;;;;2.37;1.40;;;;;;;19.92;46.82;99711.84;4956877;28;20213;-71
2022/05/30 04:43:05;;;;;;;2.80;1.60;;;;;;;19.92;47.02;99714.72;4972902;28;20197;-74
2022/05/30 04:45:30;;;;;;;2.40;1.47;;;;;;;19.93;47.16;99714.31;4956832;28;20288;-71
2022/05/30 04:47:55;;;;;;;2.60;1.70;;;;;;;19.93;47.03;99720.06;4973223;28;20189;-74
2022/05/30 04:50:21;;;;;;;2.63;1.40;;;;;;;19.95;47.09;99726.19;4972501;28;20205;-74
2022/05/30 04:52:46;;;;;;;2.53;1.60;;;;;;;19.96;46.99;99724.94;4973104;28;20633;-73
2022/05/30 04:55:13;;;;;;;3.30;1.43;;;;;;;19.97;47.03;99722.91;4972829;28;20197;-73
2022/05/30 04:57:45;;;;;;;3.00;1.20;;;;;;;19.98;47.14;99730.28;4975993;28;20697;-72
2022/05/30 05:00:12;;;;;;;4.03;1.43;;;;;;;19.98;47.47;99736.84;5010146;28;20428;-71
2022/05/30 05:02:37;;;;;;;2.90;1.73;;;;;;;19.97;47.46;99735.19;4976124;28;20437;-71
2022/05/30 05:05:04;;;;;;;2.77;1.50;;;;;;;19.95;47.25;99734.78;4975916;28;20826;-73
2022/05/30 05:07:34;;;;;;;3.90;1.97;;;;;;;19.94;47.35;99736.00;4976088;28;20185;-73
2022/05/30 05:10:01;;;;;;;4.87;1.70;;;;;;;19.93;47.37;99734.38;4991940;28;21013;-74
2022/05/30 05:12:27;;;;;;;2.30;1.57;;;;;;;19.93;47.46;99742.97;4959901;28;20427;-73
2022/05/30 05:14:52;;;;;;;3.00;1.90;;;;;;;19.92;47.35;99738.44;4975759;28;20439;-74
2022/05/30 05:17:17;;;;;;;2.60;1.80;;;;;;;19.92;47.42;99741.31;5001379;28;20184;-72
2022/05/30 05:19:43;;;;;;;3.00;1.70;;;;;;;19.92;47.48;99740.50;4995153;28;20539;-71
2022/05/30 05:22:12;;;;;;;2.80;1.43;;;;;;;19.93;47.30;99742.13;5033532;28;20176;-71
2022/05/30 05:24:38;;;;;;;3.13;1.53;;;;;;;19.93;47.46;99745.84;4999678;28;20172;-71
2022/05/30 05:27:04;;;;;;;3.70;2.20;;;;;;;19.94;47.14;99741.75;4985243;28;20428;-74
2022/05/30 05:29:29;;;;;;;2.73;1.80;;;;;;;19.95;47.58;99751.97;4994486;28;20287;-74
2022/05/30 05:31:54;;;;;;;3.70;2.10;;;;;;;19.94;47.69;99743.78;4994432;28;20180;-73
2022/05/30 05:34:20;;;;;;;3.30;1.97;;;;;;;19.95;47.50;99748.28;4994399;28;20177;-73
2022/05/30 05:36:47;;;;;;;3.30;1.60;;;;;;;19.95;47.43;99748.28;4977738;28;20555;-74
2022/05/30 05:39:12;;;;;;;4.07;1.87;;;;;;;19.95;47.62;99749.09;4978182;28;20723;-74
2022/05/30 05:41:40;;;;;;;2.87;1.70;;;;;;;19.94;47.73;99753.19;5013621;28;20419;-71
2022/05/30 05:44:06;;;;;;;2.83;1.90;;;;;;;19.93;47.78;99751.56;4980077;28;20168;-71
2022/05/30 05:46:31;;;;;;;3.37;1.90;;;;;;;19.92;47.94;99749.91;4996097;28;20847;-73
2022/05/30 05:48:57;;;;;;;2.10;1.40;;;;;;;19.91;47.59;99754.00;5012714;28;20184;-72
2022/05/30 05:51:23;;;;;;;2.90;2.00;;;;;;;19.93;47.82;99760.16;4959518;28;20596;-71
2022/05/30 05:53:48;;;;;;;2.50;1.80;;;;;;;19.94;47.78;99760.97;4959909;28;20188;-72
2022/05/30 05:56:16;;;;;;;2.50;1.80;;;;;;;19.93;47.80;99765.88;4998791;28;20283;-71
2022/05/30 05:58:41;;;;;;;3.20;1.80;;;;;;;19.93;48.02;99765.06;4979614;28;20188;-71
2022/05/30 06:01:11;;;;;;;2.80;1.70;;;;;;;19.91;47.81;99768.31;4994844;28;20431;-74
2022/05/30 06:03:37;;;;;;;3.10;1.80;;;;;;;19.90;47.66;99769.56;4963315;28;20284;-71
2022/05/30 06:06:03;;;;;;;2.80;1.93;;;;;;;19.90;48.07;99766.69;4977882;28;20526;-74
2022/05/30 06:08:28;;;;;;;2.90;1.67;;;;;;;19.92;48.16;99774.88;4961333;28;20185;-71
2022/05/30 06:11:08;;;;;;;2.73;1.83;;;;;;;19.94;48.17;99770.38;4992971;28;20467;-73
2022/05/30 06:13:36;;;;;;;3.60;1.90;;;;;;;19.95;48.19;99771.19;5011168;28;20756;-73
2022/05/30 06:16:07;;;;;;;3.70;1.80;;;;;;;19.95;48.16;99783.50;4977994;28;20551;-72
2022/05/30 06:18:32;;;;;;;2.87;1.90;;;;;;;19.93;48.13;99777.34;4996750;28;20426;-74
2022/05/30 06:20:58;;;;;;;3.97;2.40;;;;;;;19.92;47.85;99775.69;5014418;28;20507;-71
2022/05/30 06:23:24;;;;;;;3.10;1.77;;;;;;;19.90;48.06;99786.75;4998328;28;20227;-74
2022/05/30 06:25:49;;;;;;;2.40;1.80;;;;;;;19.89;48.31;99784.28;4995515;28;20439;-72
2022/05/30 06:28:15;;;;;;;4.83;2.33;;;;;;;19.87;48.31;99787.53;4978496;28;20203;-74
2022/05/30 06:30:40;;;;;;;3.33;2.00;;;;;;;19.87;48.34;99787.53;4978604;28;20665;-71
2022/05/30 06:33:06;;;;;;;5.33;1.90;;;;;;;19.87;48.39;99787.53;4994168;28;20636;-71
2022/05/30 06:35:31;;;;;;;4.03;2.30;;;;;;;19.86;48.13;99794.50;4977995;28;21362;-73
2022/05/30 06:37:56;;;;;;;2.60;1.80;;;;;;;19.87;47.92;99790.41;4978614;28;20556;-71
2022/05/30 06:40:22;;;;;;;2.57;1.87;;;;;;;19.87;48.09;99799.00;4994493;28;20937;-73
2022/05/30 06:42:47;;;;;;;3.90;1.90;;;;;;;19.85;48.30;99790.00;4978596;28;20553;-71
2022/05/30 06:45:13;;;;;;;3.30;1.83;;;;;;;19.85;48.24;99790.00;4994742;28;20181;-72
2022/05/30 06:47:38;;;;;;;3.80;2.23;;;;;;;19.87;48.34;99793.25;4978715;28;20173;-71
2022/05/30 06:50:04;;;;;;;2.70;1.40;;;;;;;19.87;48.02;99793.25;4994409;28;20232;-71
2022/05/30 06:52:30;;;;;;;3.23;1.60;;;;;;;19.86;48.03;99785.91;4978028;28;20632;-72
2022/05/30 06:54:55;;;;;;;3.50;1.87;;;;;;;19.85;47.93;99787.13;4962447;28;20436;-72
2022/05/30 07:00:05;;;;;;;3.93;1.80;;;;;;;19.88;48.09;99794.09;4997029;28;20212;-72
2022/05/30 07:02:31;;;;;;;5.63;2.00;;;;;;;19.88;48.08;99805.56;4993265;28;20435;-74
2022/05/30 07:04:56;;;;;;;2.77;1.93;;;;;;;19.86;48.18;99805.94;4994199;28;20998;-73
2022/05/30 07:07:22;;;;;;;2.60;1.60;;;;;;;19.85;48.01;99807.19;4994085;28;20180;-71
2022/05/30 07:09:47;;;;;;;3.70;2.00;;;;;;;19.84;48.24;99808.41;4993998;28;20212;-73
2022/05/30 07:12:13;;;;;;;3.20;1.70;;;;;;;19.84;48.10;99811.28;5010517;28;20224;-74
2022/05/30 07:14:38;;;;;;;2.60;1.70;;;;;;;19.82;48.24;99813.69;4978351;28;20583;-72
2022/05/30 07:17:05;;;;;;;3.20;1.87;;;;;;;19.83;48.23;99806.78;5019018;28;20230;-71
2022/05/30 07:19:30;;;;;;;3.17;1.80;;;;;;;19.83;48.38;99805.94;5014416;28;20235;-72
2022/05/30 07:21:57;;;;;;;3.60;1.83;;;;;;;19.83;48.15;99811.66;4977947;28;20526;-75
2022/05/30 07:24:22;;;;;;;3.93;1.60;;;;;;;19.83;48.27;99803.06;4992785;28;20184;-71
2022/05/30 07:26:47;;;;;;;3.57;1.63;;;;;;;19.83;48.24;99814.53;5009992;28;20427;-71
2022/05/30 07:29:13;;;;;;;3.90;2.10;;;;;;;19.82;48.31;99805.09;4975930;28;20223;-72
2022/05/30 07:31:38;;;;;;;2.67;1.57;;;;;;;19.81;48.07;99812.06;4976570;28;20169;-71
2022/05/30 07:34:04;;;;;;;3.00;1.50;;;;;;;19.80;48.26;99801.00;4976698;28;20177;-74
2022/05/30 07:36:30;;;;;;;3.23;1.83;;;;;;;19.82;48.02;99807.16;5009930;28;20510;-73
2022/05/30 07:38:55;;;;;;;3.73;1.93;;;;;;;19.81;48.07;99805.53;4975638;28;20185;-73
2022/05/30 07:41:22;;;;;;;4.40;1.70;;;;;;;19.80;48.08;99806.72;4959959;28;20427;-73
2022/05/30 07:43:47;;;;;;;3.03;1.73;;;;;;;19.80;48.03;99807.56;4991788;28;20694;-74
2022/05/30 07:46:14;;;;;;;3.00;1.77;;;;;;;19.79;48.06;99803.06;4988957;28;20416;-73
2022/05/30 07:48:39;;;;;;;3.03;1.70;;;;;;;19.79;48.24;99810.81;4990409;28;20235;-73
2022/05/30 07:51:05;;;;;;;3.10;1.50;;;;;;;19.78;48.37;99806.31;4990936;28;20494;-72
2022/05/30 07:53:31;;;;;;;3.50;1.67;;;;;;;19.80;48.08;99809.59;4975733;28;20296;-71
2022/05/30 07:55:57;;;;;;;1.90;1.30;;;;;;;19.78;48.19;99804.28;4960017;28;20212;-71
2022/05/30 07:58:23;;;;;;;3.23;1.87;;;;;;;19.78;48.11;99815.75;4976012;28;20181;-73
2022/05/30 08:00:49;;;;;;;2.57;1.70;;;;;;;19.77;48.12;99808.34;4975971;28;20475;-72
2022/05/30 08:03:16;;;;;;;2.80;1.70;;;;;;;19.78;48.18;99810.03;4959304;28;20633;-74
2022/05/30 08:05:43;;;;;;;3.90;1.87;;;;;;;19.77;48.60;99811.22;4959176;28;20903;-72
2022/05/30 08:08:09;;;;;;;5.60;2.13;;;;;;;19.77;48.12;99805.50;4976196;28;20424;-73
2022/05/30 08:10:34;;;;;;;3.13;1.67;;;;;;;19.76;48.22;99801.00;4991460;28;20551;-74
2022/05/30 08:13:00;;;;;;;3.20;1.57;;;;;;;19.77;48.44;99801.81;4991340;28;20173;-71
2022/05/30 08:15:26;;;;;;;7.20;1.67;;;;;;;19.76;48.23;99800.19;4960053;28;20177;-73
2022/05/30 08:17:56;;;;;;;4.90;2.10;;;;;;;19.74;48.63;99800.59;5006004;28;20427;-71
2022/05/30 08:20:21;;;;;;;3.93;1.70;;;;;;;19.76;48.17;99801.00;4978291;28;20419;-72
2022/05/30 08:22:47;;;;;;;2.80;2.10;;;;;;;19.77;48.20;99798.97;5010992;28;20415;-71
2022/05/30 08:25:14;;;;;;;3.27;1.80;;;;;;;19.77;48.18;99798.97;5028687;28;20235;-74
2022/05/30 08:27:42;;;;;;;3.00;1.70;;;;;;;19.76;48.17;99803.06;4993602;28;20279;-72
2022/05/30 08:30:09;;;;;;;2.40;1.63;;;;;;;19.75;48.19;99805.09;4991068;28;20484;-71
2022/05/30 08:32:36;;;;;;;2.97;1.47;;;;;;;19.73;48.04;99804.69;4975199;28;20494;-74
2022/05/30 08:35:03;;;;;;;2.50;1.50;;;;;;;19.75;48.35;99801.38;4991340;28;20985;-73
2022/05/30 08:37:30;;;;;;;2.70;1.40;;;;;;;19.75;48.14;99807.13;4975622;28;20893;-71
2022/05/30 08:42:42;;;;;;;3.00;2.10;;;;;;;19.76;48.10;99803.84;5009715;28;20427;-71
2022/05/30 08:45:12;;;;;;;2.40;1.50;;;;;;;19.75;48.02;99796.50;5010070;28;20468;-71
2022/05/30 08:47:52;;;;;;;3.70;1.77;;;;;;;19.76;48.39;99811.66;4978152;28;20157;-71
2022/05/30 08:50:23;;;;;;;6.00;1.93;;;;;;;19.76;48.18;99806.72;4976180;28;20468;-73
2022/05/30 08:52:57;;;;;;;3.40;1.60;;;;;;;19.76;47.92;99801.00;4976133;28;20512;-74
2022/05/30 08:55:51;;;;;;;3.03;1.50;;;;;;;19.77;48.09;99804.69;5008275;28;20507;-74
2022/05/30 08:58:29;;;;;;;2.50;1.50;;;;;;;19.77;48.10;99802.63;4971535;28;20499;-73
2022/05/30 09:00:56;;;;;;;3.13;1.70;;;;;;;19.77;48.00;99802.63;4988610;28;20401;-71
2022/05/30 09:03:30;;;;;;;3.23;1.80;;;;;;;19.77;47.88;99804.69;4955125;28;21021;-75
2022/05/30 09:06:15;;;;;;;3.60;1.53;;;;;;;19.76;48.09;99808.78;4970855;28;20534;-73
2022/05/30 09:08:52;;;;;;;3.10;1.43;;;;;;;19.77;48.06;99807.56;4957032;28;20416;-74
2022/05/30 09:11:29;;;;;;;4.47;1.80;;;;;;;19.76;47.82;99801.00;4971973;28;20801;-74
2022/05/30 09:13:56;;;;;;;3.10;1.70;;;;;;;19.77;47.92;99799.75;4941296;28;20508;-71
2022/05/30 09:16:30;;;;;;;2.70;1.47;;;;;;;19.77;47.96;99798.97;4975107;28;20789;-72
2022/05/30 09:18:57;;;;;;;3.20;1.43;;;;;;;19.76;47.99;99803.06;5009654;28;20476;-74
2022/05/30 09:21:22;;;;;;;3.10;1.60;;;;;;;19.76;47.78;99795.25;4993728;28;20403;-73
2022/05/30 09:23:48;;;;;;;5.33;1.50;;;;;;;19.77;47.92;99798.97;5010343;28;20949;-71
2022/05/30 09:26:44;;;;;;;2.80;1.70;;;;;;;19.77;47.48;99794.03;4988103;28;20637;-74
2022/05/30 09:29:20;;;;;;;2.97;1.70;;;;;;;19.77;47.59;99796.09;4980911;28;20283;-72
2022/05/30 09:32:21;;;;;;;3.30;1.87;;;;;;;19.77;47.91;99787.50;4975395;28;20423;-73
2022/05/30 09:34:49;;;;;;;3.80;1.77;;;;;;;19.77;47.84;99778.91;4991592;28;20872;-71
2022/05/30 09:37:38;;;;;;;3.40;1.70;;;;;;;19.77;47.88;99787.50;4991645;28;20428;-74
2022/05/30 09:40:04;;;;;;;4.40;2.20;;;;;;;19.74;48.02;99789.13;4988271;28;20497;-73
2022/05/30 09:42:30;;;;;;;2.27;1.43;;;;;;;19.74;47.75;99786.25;4972778;28;20425;-74
2022/05/30 09:45:07;;;;;;;2.23;1.40;;;;;;;19.75;47.54;99787.91;4972712;28;20181;-73
2022/05/30 09:47:34;;;;;;;2.43;1.37;;;;;;;19.75;46.91;99779.31;4988640;28;20420;-72
2022/05/30 09:49:59;;;;;;;4.30;1.63;;;;;;;19.76;47.09;99771.53;4972319;28;20476;-73
2022/05/30 09:52:25;;;;;;;2.73;1.43;;;;;;;19.76;46.83;99780.94;4972406;28;20425;-71
2022/05/30 09:54:50;;;;;;;2.33;1.40;;;;;;;19.76;46.94;99778.06;4988775;28;20206;-74
2022/05/30 09:57:18;;;;;;;3.00;1.80;;;;;;;19.76;46.92;99786.66;4974384;28;20189;-71
2022/05/30 09:59:44;;;;;;;2.97;1.70;;;;;;;19.76;46.95;99783.81;4969857;28;20173;-74
2022/05/30 10:02:31;;;;;;;4.23;1.30;;;;;;;19.76;47.17;99778.06;4938855;28;20519;-73
2022/05/30 10:05:22;;;;;;;6.20;1.50;;;;;;;19.76;46.83;99775.22;4971366;28;20455;-75
2022/05/30 10:07:59;;;;;;;3.33;1.33;;;;;;;19.75;46.62;99784.19;4975120;28;20460;-74
2022/05/30 10:10:32;;;;;;;4.70;1.83;;;;;;;19.73;46.82;99775.19;4975774;28;20963;-74
2022/05/30 10:12:58;;;;;;;4.03;1.90;;;;;;;19.72;46.96;99780.09;4975917;28;20574;-71
2022/05/30 10:15:31;;;;;;;3.00;1.77;;;;;;;19.74;46.42;99777.66;4993109;28;20507;-71
2022/05/30 10:18:16;;;;;;;3.40;1.53;;;;;;;19.75;46.71;99785.03;5004982;28;20419;-74
2022/05/30 10:20:55;;;;;;;6.80;1.70;;;;;;;19.75;46.46;99779.31;5032549;28;20417;-74
2022/05/30 10:29:30;;;;;;;3.83;1.67;;;;;;;19.75;46.21;99776.44;4996781;28;20482;-72
2022/05/30 10:32:01;;;;;;;3.00;1.67;;;;;;;19.76;46.21;99774.41;4980148;28;20777;-74
2022/05/30 10:34:37;;;;;;;3.40;1.50;;;;;;;19.76;45.97;99778.06;4995211;28;20420;-71
2022/05/30 10:37:21;;;;;;;3.17;1.50;;;;;;;19.77;46.17;99776.84;4979435;28;20819;-71
2022/05/30 10:40:12;;;;;;;3.07;1.40;;;;;;;19.76;45.98;99786.66;5011182;28;20555;-71
2022/05/30 10:43:04;;;;;;;2.00;1.30;;;;;;;19.77;45.70;99788.31;4995114;28;20839;-74
2022/05/30 10:45:44;;;;;;;3.97;1.57;;;;;;;19.77;45.91;99788.31;5007488;28;20439;-73
2022/05/30 10:48:18;;;;;;;5.83;1.50;;;;;;;19.75;46.01;99785.03;4963065;28;20443;-74
2022/05/30 10:50:58;;;;;;;3.10;1.53;;;;;;;19.74;45.94;99783.41;4979553;28;20516;-73
2022/05/30 10:53:54;;;;;;;3.83;2.00;;;;;;;19.74;45.58;99769.06;4980168;28;20743;-71
2022/05/30 10:56:33;;;;;;;4.27;1.60;;;;;;;19.75;45.71;99773.56;5011854;28;20843;-73
2022/05/30 10:59:32;;;;;;;3.03;1.80;;;;;;;19.77;45.17;99787.50;4993730;28;20435;-73
2022/05/30 11:02:09;;;;;;;2.93;1.80;;;;;;;19.76;44.92;99780.13;4975588;28;20405;-71
2022/05/30 11:05:15;;;;;;;6.43;1.80;;;;;;;19.76;44.89;99783.00;4959267;28;20480;-71
2022/05/30 11:07:59;;;;;;;2.73;1.33;;;;;;;19.77;44.82;99779.72;4992355;28;20445;-72
2022/05/30 11:10:56;;;;;;;3.37;1.60;;;;;;;19.78;44.87;99778.50;4991827;28;20453;-71
2022/05/30 11:13:35;;;;;;;3.57;1.57;;;;;;;19.79;44.95;99785.03;4975563;28;20428;-74
2022/05/30 11:16:02;;;;;;;3.67;1.80;;;;;;;19.77;45.13;99779.72;4959349;28;20944;-72
2022/05/30 11:18:35;;;;;;;3.47;1.43;;;;;;;19.79;45.18;99790.78;5011693;28;20489;-73
2022/05/30 11:21:09;;;;;;;4.83;1.53;;;;;;;19.77;44.81;99788.31;5013292;28;20877;-73
2022/05/30 11:23:34;;;;;;;3.50;1.50;;;;;;;19.77;44.89;99776.03;5013715;28;20747;-71
2022/05/30 11:26:09;;;;;;;4.33;1.90;;;;;;;19.77;44.78;99773.19;4990817;28;20923;-71
2022/05/30 11:28:41;;;;;;;3.30;1.73;;;;;;;19.75;44.76;99789.94;4993341;28;20187;-74
2022/05/30 11:31:20;;;;;;;3.70;1.70;;;;;;;19.75;44.29;99775.59;4977959;28;20586;-74
2022/05/30 11:33:48;;;;;;;4.90;1.67;;;;;;;19.76;44.09;99780.13;4993672;28;20428;-74
2022/05/30 11:36:35;;;;;;;2.23;1.43;;;;;;;19.76;43.67;99785.88;5011151;28;20431;-71
2022/05/30 11:39:15;;;;;;;1.93;1.47;;;;;;;19.76;43.71;99786.66;5010862;28;20757;-73
2022/05/30 11:41:46;;;;;;;2.40;1.50;;;;;;;19.78;43.38;99784.25;4994375;28;20435;-71
2022/05/30 11:44:21;;;;;;;6.20;1.70;;;;;;;19.78;43.12;99792.84;4993227;28;20911;-72
2022/05/30 11:47:15;;;;;;;4.30;1.70;;;;;;;19.79;43.58;99785.88;5011403;28;20450;-74
2022/05/30 11:50:12;;;;;;;3.53;1.40;;;;;;;19.79;43.30;99783.00;5011356;28;20451;-72
2022/05/30 11:53:04;;;;;;;5.20;1.90;;;;;;;19.78;43.89;99789.97;4980267;28;20432;-73
2022/05/30 11:55:52;;;;;;;3.03;1.10;;;;;;;19.79;43.60;99785.88;4940670;28;20435;-74
2022/05/30 11:58:20;;;;;;;5.20;1.70;;;;;;;19.79;43.57;99794.47;4976820;28;20505;-71
2022/05/30 12:00:47;;;;;;;2.23;1.20;;;;;;;19.80;43.34;99790.38;4992925;28;20943;-71
2022/05/30 12:03:29;;;;;;;2.37;1.50;;;;;;;19.81;43.62;99788.34;4975452;28;20440;-71